Time;durP1;ratioP1;P1;durP2;ratioP2;P2;SDS_P1;SDS_P2;PMS_P1;PMS_P2;Temp;Humidity;BMP_temperature;BMP_pressure;BME280_temperature;BME280_humidity;BME280_pressure;Samples;Min_cycle;Max_cycle;Signal;HPM_P1;HPM_P2
2022/09/30 00:02:21;;;;;;;;;25.67;22.67;;;;;11.98;68.84;100541.88;5017764;28;45453;-52
2022/09/30 00:04:47;;;;;;;;;31.00;23.00;;;;;11.97;68.62;100537.56;5018098;28;46061;-44
2022/09/30 00:07:12;;;;;;;;;26.67;23.33;;;;;11.97;69.13;100537.56;5018232;28;45396;-45
2022/09/30 00:09:37;;;;;;;;;26.00;24.33;;;;;11.96;69.42;100547.34;5018557;28;45517;-44
2022/09/30 00:12:03;;;;;;;;;27.33;25.00;;;;;11.95;68.84;100551.03;5018867;28;45328;-43
2022/09/30 00:14:28;;;;;;;;;21.33;18.00;;;;;11.90;68.18;100537.34;5017383;28;45266;-51
2022/09/30 00:16:54;;;;;;;;;23.00;22.33;;;;;11.93;68.58;100537.03;5018266;28;45435;-43
2022/09/30 00:19:19;;;;;;;;;25.33;23.33;;;;;11.93;68.81;100538.88;5018325;28;45616;-45
2022/09/30 00:21:44;;;;;;;;;27.00;26.33;;;;;11.92;69.41;100542.50;5018032;28;45484;-43
2022/09/30 00:24:10;;;;;;;;;41.33;29.00;;;;;11.90;69.27;100537.34;5017904;28;46024;-43
2022/09/30 00:26:35;;;;;;;;;40.33;24.67;;;;;11.78;69.76;100522.59;5017933;28;45572;-46
2022/09/30 00:29:01;;;;;;;;;30.00;22.00;;;;;11.80;69.77;100519.75;5017913;28;45855;-43
2022/09/30 00:31:30;;;;;;;;;35.00;25.33;;;;;11.88;70.26;100538.50;5018160;28;45329;-58
2022/09/30 00:34:07;;;;;;;;;24.67;23.67;;;;;11.84;70.22;100535.34;5017699;28;46284;-44
2022/09/30 00:36:50;;;;;;;;;25.00;23.00;;;;;11.82;69.71;100536.44;5017684;28;45448;-51
2022/09/30 00:39:18;;;;;;;;;23.67;20.33;;;;;11.84;70.44;100542.47;5017714;28;45398;-57
2022/09/30 00:41:46;;;;;;;;;29.67;25.67;;;;;11.82;70.65;100539.94;5018084;28;45289;-49
2022/09/30 00:44:52;;;;;;;;;33.67;26.67;;;;;11.80;70.39;100541.94;5017434;28;46199;-45
2022/09/30 00:47:27;;;;;;;;;26.00;22.33;;;;;11.79;70.14;100531.44;5017462;28;45464;-47
2022/09/30 00:49:54;;;;;;;;;32.00;26.33;;;;;11.78;70.04;100532.44;5017701;28;45263;-43
2022/09/30 00:52:19;;;;;;;;;28.33;25.67;;;;;11.69;70.14;100529.72;5017483;28;45325;-44
2022/09/30 00:54:44;;;;;;;;;30.67;25.00;;;;;11.74;70.67;100545.22;4999564;28;46156;-44
2022/09/30 00:57:10;;;;;;;;;31.33;25.67;;;;;11.74;70.08;100546.06;5017402;28;45333;-47
2022/09/30 00:59:40;;;;;;;;;24.50;22.00;;;;;11.72;70.91;100539.25;5017453;28;45353;-45
2022/09/30 01:02:06;;;;;;;;;29.00;25.00;;;;;11.64;70.65;100539.19;5017593;28;45396;-43
2022/09/30 01:04:34;;;;;;;;;24.00;21.67;;;;;11.70;70.33;100544.72;5017371;28;45657;-55
2022/09/30 01:07:06;;;;;;;;;32.67;28.00;;;;;11.64;70.12;100542.69;5017049;28;45386;-43
2022/09/30 01:09:37;;;;;;;;;26.33;22.00;;;;;11.68;70.66;100549.38;5017140;28;45472;-43
2022/09/30 01:12:08;;;;;;;;;28.00;24.67;;;;;11.68;70.79;100553.88;5016836;28;45495;-47
2022/09/30 01:14:35;;;;;;;;;30.00;23.33;;;;;11.68;70.46;100556.53;5016549;28;46142;-45
2022/09/30 01:17:13;;;;;;;;;31.33;21.33;;;;;11.67;70.47;100563.69;4999395;28;45376;-44
2022/09/30 01:20:18;;;;;;;;;29.00;23.67;;;;;11.65;70.13;100560.34;5017264;28;45349;-43
2022/09/30 01:23:01;;;;;;;;;25.00;21.00;;;;;11.66;70.56;100563.84;4975437;28;45447;-44
2022/09/30 01:25:45;;;;;;;;;20.00;20.00;;;;;11.64;71.05;100558.69;4975198;28;46230;-42
2022/09/30 01:28:44;;;;;;;;;29.00;22.33;;;;;11.62;70.48;100550.00;4975103;28;45287;-53
2022/09/30 01:31:15;;;;;;;;;30.67;28.33;;;;;11.60;70.89;100552.00;4975245;28;45410;-45
2022/09/30 01:34:13;;;;;;;;;27.33;23.67;;;;;11.58;70.51;100551.31;4975562;28;45286;-50
2022/09/30 01:36:46;;;;;;;;;32.00;27.67;;;;;11.57;71.14;100549.63;4974902;28;46902;-44
2022/09/30 01:39:28;;;;;;;;;23.33;23.33;;;;;11.52;70.52;100546.63;4974947;28;45508;-44
2022/09/30 01:42:05;;;;;;;;;31.67;27.00;;;;;11.52;71.23;100545.78;4974874;28;45533;-48
2022/09/30 01:44:36;;;;;;;;;24.33;22.33;;;;;11.55;71.12;100551.63;4975015;28;45571;-47
2022/09/30 01:47:23;;;;;;;;;32.33;23.33;;;;;11.51;71.15;100547.63;4974879;28;45962;-57
2022/09/30 01:50:15;;;;;;;;;27.00;24.50;;;;;11.52;71.41;100551.13;4974640;28;45443;-44
2022/09/30 01:52:52;;;;;;;;;23.67;22.67;;;;;11.44;71.72;100542.06;4974670;28;45489;-46
2022/09/30 01:55:26;;;;;;;;;26.00;23.33;;;;;11.46;71.20;100558.75;4974793;28;45457;-46
2022/09/30 01:58:01;;;;;;;;;27.00;26.00;;;;;11.50;71.70;100564.56;4974529;28;45525;-56
2022/09/30 02:00:27;;;;;;;;;31.67;23.67;;;;;11.49;71.51;100555.75;4974305;28;45504;-57
2022/09/30 02:03:08;;;;;;;;;29.33;22.00;;;;;11.49;71.28;100566.41;4974455;28;45424;-54
2022/09/30 02:05:54;;;;;;;;;24.33;22.67;;;;;11.49;71.76;100562.91;4974981;28;45400;-54
2022/09/30 02:08:49;;;;;;;;;25.67;21.00;;;;;11.48;71.61;100567.41;4974425;28;47142;-45
2022/09/30 02:11:19;;;;;;;;;25.67;19.33;;;;;11.45;71.48;100549.06;4974268;28;45423;-56
2022/09/30 02:14:10;;;;;;;;;27.33;25.00;;;;;11.46;71.76;100563.22;4974200;28;45536;-47
2022/09/30 02:16:42;;;;;;;;;30.67;24.67;;;;;11.44;71.75;100565.22;4974619;28;45376;-44
2022/09/30 02:19:27;;;;;;;;;35.33;26.33;;;;;11.42;71.47;100562.72;4974360;28;46186;-50
2022/09/30 02:21:59;;;;;;;;;22.33;19.33;;;;;11.41;72.06;100565.50;4974125;28;45421;-44
2022/09/30 02:24:30;;;;;;;;;29.00;21.00;;;;;11.39;71.84;100560.34;4973789;28;45326;-51
2022/09/30 02:26:59;;;;;;;;;27.00;24.33;;;;;11.37;72.21;100553.50;4958210;28;45569;-51
2022/09/30 02:29:33;;;;;;;;;20.00;17.00;;;;;11.36;71.83;100558.00;4990191;28;46556;-48
2022/09/30 02:32:05;;;;;;;;;23.33;19.67;;;;;11.36;72.32;100557.16;5015837;28;45563;-57
2022/09/30 02:34:53;;;;;;;;;23.67;21.00;;;;;11.35;72.32;100548.34;5016080;28;45437;-43
2022/09/30 02:37:43;;;;;;;;;26.00;20.00;;;;;11.33;71.45;100544.16;5016067;28;45366;-44
2022/09/30 02:40:20;;;;;;;;;27.67;23.00;;;;;11.34;71.56;100556.50;5015636;28;45455;-44
2022/09/30 02:42:47;;;;;;;;;27.00;22.33;;;;;11.28;70.71;100557.94;5015838;28;45511;-44
2022/09/30 02:45:18;;;;;;;;;27.33;25.00;;;;;11.25;70.85;100552.94;5015666;28;45388;-49
2022/09/30 02:48:11;;;;;;;;;30.67;26.67;;;;;11.21;70.92;100548.94;5015988;28;45317;-47
2022/09/30 02:50:47;;;;;;;;;28.67;22.33;;;;;11.14;71.38;100546.03;5015644;28;45395;-49
2022/09/30 02:53:36;;;;;;;;;31.00;26.00;;;;;11.14;71.74;100559.34;5015273;28;45262;-47
2022/09/30 02:56:16;;;;;;;;;36.75;26.75;;;;;11.12;72.19;100566.63;5015825;28;45375;-46
2022/09/30 02:58:44;;;;;;;;;32.33;27.67;;;;;11.07;72.69;100566.28;5015874;28;45215;-54
2022/09/30 03:01:12;;;;;;;;;34.00;26.00;;;;;11.10;72.19;100565.97;5015324;28;45388;-59
2022/09/30 03:03:47;;;;;;;;;36.50;28.50;;;;;11.09;72.18;100560.81;5015359;28;45453;-59
2022/09/30 03:06:13;;;;;;;;;30.33;24.67;;;;;11.10;72.29;100576.63;4998177;28;45489;-61
2022/09/30 03:08:39;;;;;;;;;33.75;26.75;;;;;11.09;72.32;100577.63;5015606;28;45661;-61
2022/09/30 03:11:06;;;;;;;;;32.50;27.00;;;;;11.07;72.22;100568.09;5015355;28;46472;-57
2022/09/30 03:14:09;;;;;;;;;30.00;28.50;;;;;11.04;72.36;100577.25;5015720;28;45319;-60
2022/09/30 03:16:53;;;;;;;;;36.75;26.75;;;;;10.95;72.46;100572.81;5015297;28;45431;-59
2022/09/30 03:19:27;;;;;;;;;34.75;26.50;;;;;10.98;72.90;100581.34;5015424;28;45393;-60
2022/09/30 03:22:28;;;;;;;;;27.00;25.75;;;;;11.00;73.07;100597.19;5014919;28;46367;-63
2022/09/30 03:25:08;;;;;;;;;27.50;23.50;;;;;11.00;73.09;100610.47;4973253;28;45325;-59
2022/09/30 03:28:18;;;;;;;;;27.25;24.75;;;;;10.99;72.90;100614.13;4973805;28;45389;-61
2022/09/30 03:30:53;;;;;;;;;28.25;23.00;;;;;10.98;72.88;100615.09;4973747;28;45803;-53
2022/09/30 03:33:26;;;;;;;;;31.25;26.50;;;;;10.98;73.12;100617.78;4973241;28;46126;-59
2022/09/30 03:36:19;;;;;;;;;31.50;26.50;;;;;10.95;73.49;100621.56;4974590;28;45315;-56
2022/09/30 03:39:04;;;;;;;;;31.25;26.00;;;;;10.94;73.10;100624.38;4977136;28;45483;-60
2022/09/30 03:41:32;;;;;;;;;32.50;24.50;;;;;10.94;73.08;100630.53;4977065;28;45428;-59
2022/09/30 03:44:27;;;;;;;;;32.25;27.00;;;;;10.92;73.35;100631.69;4976827;28;45418;-60
2022/09/30 03:47:01;;;;;;;;;32.75;25.50;;;;;10.94;73.80;100632.38;4976382;28;45405;-54
2022/09/30 03:49:33;;;;;;;;;33.00;26.00;;;;;10.94;74.06;100643.00;4976768;28;45292;-58
2022/09/30 03:52:03;;;;;;;;;31.50;27.75;;;;;10.94;73.91;100648.34;4976843;28;45418;-44
2022/09/30 03:54:30;;;;;;;;;32.00;24.75;;;;;10.91;73.58;100652.16;4976471;28;46108;-59
2022/09/30 03:56:55;;;;;;;;;28.75;24.50;;;;;10.93;73.69;100658.16;4976414;28;45444;-59
2022/09/30 03:59:24;;;;;;;;;27.00;21.50;;;;;10.92;73.35;100666.28;4977338;28;45369;-57
2022/09/30 04:01:50;;;;;;;;;24.00;22.00;;;;;10.94;73.32;100664.31;5018136;28;45490;-56
2022/09/30 04:04:15;;;;;;;;;29.25;21.00;;;;;10.95;73.28;100668.63;5017904;28;46185;-58
2022/09/30 04:06:41;;;;;;;;;26.25;24.00;;;;;10.97;73.12;100672.00;5000423;28;45622;-54
2022/09/30 04:09:06;;;;;;;;;27.00;19.25;;;;;10.95;73.24;100673.97;5018346;28;45297;-45
2022/09/30 04:11:32;;;;;;;;;29.00;21.33;;;;;10.99;72.86;100693.97;5018566;28;45432;-57
2022/09/30 04:13:57;;;;;;;;;26.00;20.00;;;;;10.99;72.76;100696.63;5017863;28;47091;-52
2022/09/30 04:16:23;;;;;;;;;29.00;21.67;;;;;10.95;72.55;100684.59;5017885;28;45495;-55
2022/09/30 04:18:49;;;;;;;;;28.50;21.50;;;;;11.01;72.41;100697.31;5017932;28;45421;-58
2022/09/30 04:21:15;;;;;;;;;20.33;19.33;;;;;10.94;72.19;100693.59;5018301;28;45416;-60
2022/09/30 04:23:41;;;;;;;;;23.00;19.33;;;;;10.99;72.19;100702.78;5017566;28;45380;-54
2022/09/30 04:26:10;;;;;;;;;24.67;21.00;;;;;10.98;72.38;100711.75;5018096;28;45464;-51
2022/09/30 04:28:35;;;;;;;;;24.00;19.67;;;;;10.98;72.31;100717.09;5017956;28;45369;-51
2022/09/30 04:31:02;;;;;;;;;23.67;17.33;;;;;10.97;72.21;100718.06;5017784;28;45493;-60
2022/09/30 04:33:28;;;;;;;;;25.00;18.00;;;;;10.96;72.59;100720.91;5017743;28;46222;-57
2022/09/30 04:35:55;;;;;;;;;24.00;20.00;;;;;10.93;72.58;100721.19;5017538;28;45460;-51
2022/09/30 04:38:21;;;;;;;;;21.33;14.33;;;;;10.92;72.36;100719.53;5018003;28;45413;-57
2022/09/30 04:40:48;;;;;;;;;20.00;15.00;;;;;10.91;72.27;100724.00;5017612;28;45254;-55
2022/09/30 04:43:15;;;;;;;;;19.67;17.67;;;;;10.94;72.10;100728.19;5017367;28;47059;-59
2022/09/30 04:45:43;;;;;;;;;24.33;16.67;;;;;10.92;72.12;100728.34;5017433;28;45251;-57
2022/09/30 04:48:08;;;;;;;;;20.00;20.00;;;;;10.90;71.78;100730.31;5017193;28;45300;-54
2022/09/30 04:50:34;;;;;;;;;24.33;18.67;;;;;10.91;72.05;100736.47;5017704;28;45368;-57
2022/09/30 04:52:59;;;;;;;;;20.33;18.33;;;;;10.91;72.05;100733.78;5016970;28;46116;-55
2022/09/30 04:55:25;;;;;;;;;22.33;19.00;;;;;10.90;72.50;100732.97;4999531;28;45808;-60
2022/09/30 04:57:50;;;;;;;;;20.00;15.00;;;;;10.90;72.51;100735.63;5017602;28;45229;-56
2022/09/30 05:00:15;;;;;;;;;22.00;17.33;;;;;10.87;72.03;100730.63;5017183;28;45524;-51
2022/09/30 05:02:44;;;;;;;;;16.33;13.67;;;;;10.84;72.52;100727.41;5017178;28;46091;-44
2022/09/30 05:05:09;;;;;;;;;22.33;17.33;;;;;10.87;72.32;100738.59;5017124;28;45401;-54
2022/09/30 05:07:35;;;;;;;;;18.00;17.33;;;;;10.86;72.49;100747.56;5017321;28;45393;-60
2022/09/30 05:10:00;;;;;;;;;18.67;15.67;;;;;10.85;72.30;100745.03;5017477;28;45402;-53
2022/09/30 05:12:25;;;;;;;;;21.00;15.50;;;;;10.84;72.30;100741.56;5016991;28;45397;-55
2022/09/30 05:14:51;;;;;;;;;18.00;14.67;;;;;10.86;72.12;100738.72;5017197;28;45471;-60
2022/09/30 05:17:16;;;;;;;;;20.67;17.33;;;;;10.83;72.11;100747.88;5017139;28;45873;-59
2022/09/30 05:19:41;;;;;;;;;19.00;18.33;;;;;10.82;72.05;100745.34;5017438;28;45337;-56
2022/09/30 05:22:07;;;;;;;;;21.33;17.00;;;;;10.80;71.87;100742.84;5016973;28;45375;-52
2022/09/30 05:24:32;;;;;;;;;21.33;18.33;;;;;10.78;72.50;100747.44;5017115;28;45376;-58
2022/09/30 05:26:58;;;;;;;;;21.33;18.00;;;;;10.74;72.03;100741.63;5016843;28;45377;-57
2022/09/30 05:29:23;;;;;;;;;22.67;19.67;;;;;10.75;71.91;100742.44;5017200;28;45408;-52
2022/09/30 05:31:48;;;;;;;;;23.00;17.33;;;;;10.76;71.77;100743.28;5016732;28;46292;-61
2022/09/30 05:34:15;;;;;;;;;20.33;16.00;;;;;10.77;71.67;100753.75;5016793;28;45403;-58
2022/09/30 05:36:44;;;;;;;;;13.00;9.00;;;;;10.75;71.69;100755.75;5016944;28;45373;-59
2022/09/30 05:39:10;;;;;;;;;22.00;16.67;;;;;10.75;71.69;100758.41;5016692;28;45452;-57
2022/09/30 05:41:36;;;;;;;;;23.00;18.67;;;;;10.72;71.95;100754.22;5016588;28;46252;-52
2022/09/30 05:44:01;;;;;;;;;19.00;16.67;;;;;10.73;71.76;100763.03;5016316;28;45408;-56
2022/09/30 05:46:27;;;;;;;;;25.33;19.00;;;;;10.72;71.81;100767.50;5017024;28;45242;-54
2022/09/30 05:48:53;;;;;;;;;21.00;19.33;;;;;10.72;71.70;100770.19;5016688;28;45342;-57
2022/09/30 05:51:19;;;;;;;;;22.00;17.33;;;;;10.73;71.81;100776.31;5015527;28;46164;-59
2022/09/30 05:53:45;;;;;;;;;23.67;17.00;;;;;10.60;71.71;100750.06;5016566;28;45364;-43
2022/09/30 05:56:10;;;;;;;;;16.00;16.00;;;;;10.73;72.23;100768.34;5016532;28;45518;-52
2022/09/30 05:58:36;;;;;;;;;20.67;15.67;;;;;10.61;71.75;100750.91;5016083;28;45499;-52
2022/09/30 06:01:07;;;;;;;;;22.00;17.33;;;;;10.74;72.25;100778.88;5015941;28;47230;-47
2022/09/30 06:03:33;;;;;;;;;21.00;16.00;;;;;10.75;71.78;100782.34;5015654;28;45393;-49
2022/09/30 06:05:58;;;;;;;;;19.67;17.33;;;;;10.74;71.67;100784.19;5016307;28;45459;-49
2022/09/30 06:08:24;;;;;;;;;20.33;18.33;;;;;10.75;71.86;100787.69;5016384;28;45486;-48
2022/09/30 06:10:49;;;;;;;;;17.33;15.33;;;;;10.79;71.68;100783.75;5016520;28;45351;-53
2022/09/30 06:13:16;;;;;;;;;19.67;16.67;;;;;10.82;72.15;100801.22;5016128;28;45794;-49
2022/09/30 06:15:42;;;;;;;;;16.00;16.00;;;;;10.81;72.08;100796.88;5016328;28;45416;-55
2022/09/30 06:18:07;;;;;;;;;21.33;17.33;;;;;10.85;71.96;100803.59;5015973;28;45405;-49
2022/09/30 06:20:33;;;;;;;;;21.00;19.67;;;;;10.87;71.90;100798.94;5015999;28;46165;-56
2022/09/30 06:22:59;;;;;;;;;21.00;16.67;;;;;10.90;72.14;100802.16;5016050;28;45275;-54
2022/09/30 06:25:27;;;;;;;;;21.67;15.67;;;;;10.92;71.70;100816.16;5016228;28;45340;-53
2022/09/30 06:27:53;;;;;;;;;25.67;20.67;;;;;10.95;71.64;100813.19;5016268;28;45481;-53
2022/09/30 06:30:18;;;;;;;;;19.33;17.00;;;;;10.98;71.28;100822.72;5015832;28;45950;-53
2022/09/30 06:32:44;;;;;;;;;21.67;20.33;;;;;10.98;71.35;100817.41;5015888;28;45194;-48
2022/09/30 06:35:10;;;;;;;;;24.00;18.00;;;;;10.99;71.47;100811.91;5015827;28;45399;-49
2022/09/30 06:37:36;;;;;;;;;22.00;18.33;;;;;11.05;70.96;100821.16;5016250;28;45528;-57
2022/09/30 06:40:03;;;;;;;;;26.33;21.67;;;;;11.11;70.96;100830.38;5015550;28;46132;-56
2022/09/30 06:42:28;;;;;;;;;26.33;17.00;;;;;11.14;70.75;100825.59;5015770;28;45348;-59
2022/09/30 06:44:54;;;;;;;;;20.33;17.33;;;;;11.11;70.35;100822.38;5016021;28;45520;-47
2022/09/30 06:47:20;;;;;;;;;20.00;18.33;;;;;11.21;70.16;100828.50;5015877;28;45511;-54
2022/09/30 06:49:45;;;;;;;;;17.00;16.67;;;;;11.16;70.01;100822.75;5015700;28;45406;-50
2022/09/30 06:52:13;;;;;;;;;20.33;17.33;;;;;11.29;70.00;100851.69;5015454;28;45373;-52
2022/09/30 06:54:42;;;;;;;;;17.00;17.00;;;;;11.31;69.72;100839.09;5015769;28;45334;-54
2022/09/30 06:57:08;;;;;;;;;22.33;19.33;;;;;11.34;69.95;100839.63;5015754;28;45451;-46
2022/09/30 06:59:33;;;;;;;;;21.67;19.00;;;;;11.34;69.96;100839.63;5015621;28;46293;-55
2022/09/30 07:01:59;;;;;;;;;21.33;20.00;;;;;11.41;69.65;100840.69;5015012;28;45398;-55
2022/09/30 07:04:24;;;;;;;;;25.00;21.67;;;;;11.41;69.68;100832.69;5008975;28;45716;-49
2022/09/30 07:06:50;;;;;;;;;22.33;21.00;;;;;11.49;69.77;100842.63;5001346;28;45456;-43
2022/09/30 07:09:16;;;;;;;;;21.33;17.67;;;;;11.55;69.56;100843.84;4995394;28;46053;-56
2022/09/30 07:11:42;;;;;;;;;22.67;22.00;;;;;11.58;69.48;100851.53;4993455;28;45336;-43
2022/09/30 07:14:09;;;;;;;;;22.00;16.33;;;;;11.63;69.57;100836.78;5019198;28;45352;-42
2022/09/30 07:16:34;;;;;;;;;24.67;22.33;;;;;11.66;69.01;100839.13;5013184;28;46321;-43
2022/09/30 07:19:01;;;;;;;;;23.00;19.67;;;;;11.73;69.29;100839.38;5008302;28;46362;-45
2022/09/30 07:21:26;;;;;;;;;26.67;23.33;;;;;11.76;68.61;100838.25;5014046;28;45550;-46
2022/09/30 07:23:53;;;;;;;;;23.33;21.67;;;;;11.82;68.60;100837.63;5017008;28;45483;-43
2022/09/30 07:26:21;;;;;;;;;22.33;20.33;;;;;11.87;68.23;100843.34;5017810;28;45397;-50
2022/09/30 07:28:48;;;;;;;;;25.00;21.67;;;;;11.91;68.19;100842.06;5015826;28;47099;-43
2022/09/30 07:31:17;;;;;;;;;25.00;19.00;;;;;11.96;68.57;100845.09;5009884;28;45849;-43
2022/09/30 07:33:44;;;;;;;;;30.33;25.67;;;;;12.01;68.95;100845.50;5016107;28;45524;-43
2022/09/30 07:36:11;;;;;;;;;24.67;21.67;;;;;12.05;68.52;100843.34;5009034;28;45519;-46
2022/09/30 07:38:40;;;;;;;;;23.33;23.00;;;;;12.11;68.32;100845.41;5016101;28;46505;-47
2022/09/30 07:41:10;;;;;;;;;27.67;24.67;;;;;12.14;68.28;100840.59;5016001;28;45499;-45
2022/09/30 07:43:37;;;;;;;;;29.00;24.00;;;;;12.18;67.39;100849.97;5011652;28;46015;-49
2022/09/30 07:46:07;;;;;;;;;31.00;23.67;;;;;12.26;68.12;100848.34;5015941;28;45462;-46
2022/09/30 07:48:43;;;;;;;;;30.67;26.00;;;;;12.31;67.77;100849.56;5011005;28;46249;-44
2022/09/30 07:51:17;;;;;;;;;26.33;24.67;;;;;12.36;67.51;100841.94;5017849;28;45607;-43
2022/09/30 07:53:45;;;;;;;;;37.50;32.00;;;;;12.42;67.64;100846.63;5035579;28;45400;-45
2022/09/30 07:56:11;;;;;;;;;32.25;30.00;;;;;12.48;67.75;100853.19;5017850;28;45509;-43
2022/09/30 07:58:37;;;;;;;;;27.50;26.75;;;;;12.51;67.75;100849.34;5035336;28;47154;-45
2022/09/30 08:01:05;;;;;;;;;38.50;33.25;;;;;12.64;67.36;100849.78;5035122;28;45451;-44
2022/09/30 08:03:38;;;;;;;;;36.00;32.33;;;;;12.71;67.46;100854.31;5035091;28;45508;-48
2022/09/30 08:06:08;;;;;;;;;37.75;33.75;;;;;12.82;67.15;100841.72;5035441;28;45836;-44
2022/09/30 08:08:34;;;;;;;;;41.50;33.00;;;;;13.00;66.75;100847.81;5027538;28;46397;-44
2022/09/30 08:11:01;;;;;;;;;43.50;33.75;;;;;13.26;66.78;100846.94;5027809;28;45482;-44
2022/09/30 08:13:26;;;;;;;;;36.00;32.75;;;;;14.64;64.02;100838.22;5034957;28;45549;-45
2022/09/30 08:15:52;;;;;;;;;31.67;27.00;;;;;17.10;58.19;100840.84;5014289;28;45322;-44
2022/09/30 08:18:17;;;;;;;;;35.33;32.00;;;;;18.39;53.17;100836.41;5015548;28;47044;-46
2022/09/30 08:20:43;;;;;;;;;39.00;34.00;;;;;18.82;52.09;100826.38;5015354;28;45464;-45
2022/09/30 08:23:08;;;;;;;;;42.67;34.67;;;;;19.16;51.35;100848.94;5012182;28;45348;-44
2022/09/30 08:25:33;;;;;;;;;32.67;30.33;;;;;19.37;50.26;100846.13;5016062;28;45834;-43
2022/09/30 08:27:59;;;;;;;;;38.33;32.33;;;;;19.72;49.36;100839.81;5015325;28;46121;-45
2022/09/30 08:30:24;;;;;;;;;13.00;8.67;;;;;20.09;48.51;100836.53;5015745;28;45721;-42
2022/09/30 08:32:49;;;;;;;;;34.00;32.00;;;;;20.52;47.64;100838.03;5015409;28;45389;-42
2022/09/30 08:35:15;;;;;;;;;39.00;32.00;;;;;21.01;46.51;100829.38;5015634;28;45618;-43
2022/09/30 08:37:40;;;;;;;;;33.00;28.00;;;;;21.77;44.96;100838.63;5015097;28;46339;-49
2022/09/30 08:40:19;;;;;;;;;36.33;29.00;;;;;22.98;43.75;100843.69;5033006;28;45495;-46
2022/09/30 08:43:03;;;;;;;;;38.33;28.67;;;;;24.44;39.69;100847.09;5034176;28;45508;-48
2022/09/30 08:45:36;;;;;;;;;36.00;30.00;;;;;25.73;38.09;100848.72;5034676;28;45450;-44
2022/09/30 08:48:18;;;;;;;;;29.00;28.67;;;;;26.67;36.10;100845.38;5033962;28;47416;-44
2022/09/30 08:51:16;;;;;;;;;34.33;30.00;;;;;27.35;36.16;100847.69;5034295;28;45429;-42
2022/09/30 08:53:46;;;;;;;;;29.25;27.75;;;;;28.09;33.71;100838.88;5034431;28;45407;-44
2022/09/30 08:56:32;;;;;;;;;31.00;27.25;;;;;28.86;32.69;100836.66;5034643;28;45364;-46
2022/09/30 08:59:13;;;;;;;;;25.75;23.50;;;;;29.55;31.32;100839.16;5033554;28;46190;-45
2022/09/30 09:01:43;;;;;;;;;25.00;24.40;;;;;30.00;29.26;100834.03;5034231;28;45409;-45
2022/09/30 09:04:08;;;;;;;;;25.40;21.20;;;;;30.44;28.04;100823.34;5034113;28;46288;-47
2022/09/30 09:07:11;;;;;;;;;27.50;25.00;;;;;31.06;28.01;100840.50;5034508;28;45526;-48
2022/09/30 09:10:02;;;;;;;;;24.20;21.20;;;;;31.63;28.64;100843.78;5014258;28;46448;-45
2022/09/30 09:12:48;;;;;;;;;26.00;24.40;;;;;32.00;28.05;100841.34;5014922;28;45454;-46
2022/09/30 09:15:14;;;;;;;;;27.40;24.40;;;;;32.42;25.99;100845.41;5014969;28;45430;-43
2022/09/30 09:18:14;;;;;;;;;24.25;22.25;;;;;32.86;25.78;100841.59;5015020;28;45464;-47
2022/09/30 09:20:51;;;;;;;;;22.00;19.20;;;;;33.26;25.24;100842.25;5014319;28;45553;-47
2022/09/30 09:23:16;;;;;;;;;18.60;18.60;;;;;33.51;24.43;100847.44;5014492;28;45526;-46
2022/09/30 09:25:45;;;;;;;;;22.00;21.25;;;;;33.77;23.20;100858.91;5014485;28;45482;-46
2022/09/30 09:28:26;;;;;;;;;21.00;19.60;;;;;33.92;25.08;100862.53;5014866;28;45463;-46
2022/09/30 09:30:57;;;;;;;;;24.00;20.20;;;;;34.13;23.93;100857.53;5032356;28;46182;-45
2022/09/30 09:33:31;;;;;;;;;23.20;21.00;;;;;34.13;23.25;100863.06;5013371;28;45431;-47
2022/09/30 09:36:03;;;;;;;;;19.60;19.20;;;;;34.33;23.09;100865.47;5014517;28;45480;-46
2022/09/30 09:38:39;;;;;;;;;24.00;21.40;;;;;34.33;22.84;100868.22;5014713;28;45541;-45
2022/09/30 09:41:34;;;;;;;;;24.60;23.00;;;;;34.36;22.61;100867.63;5013806;28;45690;-46
2022/09/30 09:44:25;;;;;;;;;18.00;16.40;;;;;34.49;23.22;100879.88;5013988;28;45426;-47
2022/09/30 09:47:04;;;;;;;;;14.60;12.60;;;;;34.18;22.56;100874.03;5011539;28;45444;-45
2022/09/30 09:49:35;;;;;;;;;12.20;11.80;;;;;33.48;23.86;100877.56;5013865;28;45602;-44
2022/09/30 09:52:12;;;;;;;;;12.40;12.00;;;;;32.57;23.41;100874.69;5027599;28;46427;-45
2022/09/30 09:54:42;;;;;;;;;12.20;11.00;;;;;32.21;24.55;100876.94;5033469;28;45491;-45
2022/09/30 09:57:10;;;;;;;;;13.60;12.00;;;;;32.07;23.50;100868.53;5033575;28;45362;-45
2022/09/30 09:59:38;;;;;;;;;12.60;10.60;;;;;32.04;23.94;100875.44;5033954;28;45447;-48
2022/09/30 10:02:23;;;;;;;;;13.20;12.00;;;;;32.09;24.06;100871.00;5032661;28;47233;-49
2022/09/30 10:04:57;;;;;;;;;13.80;11.60;;;;;31.91;23.34;100865.06;5020976;28;45540;-44
2022/09/30 10:07:22;;;;;;;;;11.00;10.60;;;;;31.69;24.32;100864.63;5013949;28;45356;-45
2022/09/30 10:10:03;;;;;;;;;11.25;8.75;;;;;31.75;24.54;100864.31;5032403;28;45366;-43
2022/09/30 10:12:29;;;;;;;;;17.40;9.80;;;;;31.95;23.60;100862.56;5030793;28;46256;-45
2022/09/30 10:15:01;;;;;;;;;10.00;8.50;;;;;32.19;23.50;100857.94;5011865;28;45458;-44
2022/09/30 10:17:28;;;;;;;;;9.40;8.20;;;;;32.33;24.22;100869.13;5013490;28;45392;-56
2022/09/30 10:19:59;;;;;;;;;12.40;9.20;;;;;32.35;22.42;100863.31;5013567;28;45448;-48
2022/09/30 10:22:29;;;;;;;;;8.60;8.60;;;;;32.63;25.27;100872.72;5013594;28;45399;-44
2022/09/30 10:25:13;;;;;;;;;16.20;15.20;;;;;33.17;23.15;100871.59;5011964;28;45526;-46
2022/09/30 10:27:47;;;;;;;;;11.60;11.00;;;;;34.74;21.34;100864.75;5025478;28;45573;-46
2022/09/30 10:30:12;;;;;;;;;9.00;8.40;;;;;36.91;18.88;100864.63;5032869;28;45490;-47
2022/09/30 10:32:38;;;;;;;;;11.00;9.50;;;;;39.00;16.12;100859.78;5032300;28;45836;-47
2022/09/30 10:35:15;;;;;;;;;13.50;13.00;;;;;40.20;17.74;100855.63;5032644;28;45455;-47
2022/09/30 10:37:53;;;;;;;;;11.20;11.20;;;;;41.08;15.03;100848.63;5032642;28;45369;-45
2022/09/30 10:40:26;;;;;;;;;13.20;12.00;;;;;41.92;14.42;100856.34;5013496;28;45852;-46
2022/09/30 10:42:52;;;;;;;;;10.40;10.00;;;;;42.48;13.64;100843.13;5013371;28;46450;-45
2022/09/30 10:45:32;;;;;;;;;8.80;8.60;;;;;42.77;14.39;100852.22;5013069;28;45523;-45
2022/09/30 10:48:05;;;;;;;;;12.60;11.40;;;;;43.44;14.75;100852.16;5013614;28;45552;-50
2022/09/30 10:50:31;;;;;;;;;11.60;11.60;;;;;43.84;13.59;100843.41;5013625;28;45408;-48
2022/09/30 10:53:18;;;;;;;;;14.50;13.25;;;;;42.62;13.84;100851.03;5030065;28;46321;-49
2022/09/30 10:55:45;;;;;;;;;16.40;15.00;;;;;43.03;17.71;100848.84;5032845;28;45554;-51
2022/09/30 10:58:47;;;;;;;;;11.60;10.80;;;;;42.38;15.65;100846.44;5033088;28;45384;-42
2022/09/30 11:01:31;;;;;;;;;11.40;11.20;;;;;43.69;13.78;100852.72;4971000;28;45764;-46
2022/09/30 11:04:08;;;;;;;;;9.40;9.40;;;;;42.93;15.78;100850.22;4973533;28;46170;-45
2022/09/30 11:06:38;;;;;;;;;12.80;11.80;;;;;43.47;13.92;100848.66;4973724;28;45781;-45
2022/09/30 11:09:11;;;;;;;;;10.40;10.40;;;;;44.20;13.03;100842.09;4973719;28;45472;-44
2022/09/30 11:11:51;;;;;;;;;11.40;9.40;;;;;44.74;12.99;100841.06;4973837;28;45385;-46
2022/09/30 11:14:34;;;;;;;;;11.80;10.00;;;;;45.41;11.96;100846.09;4973858;28;45944;-54
2022/09/30 11:17:27;;;;;;;;;10.20;10.00;;;;;45.75;12.02;100849.69;4973553;28;45361;-46
2022/09/30 11:20:11;;;;;;;;;7.60;7.40;;;;;45.57;11.94;100847.88;4973625;28;45422;-44
2022/09/30 11:22:47;;;;;;;;;9.40;9.40;;;;;45.78;12.25;100848.94;4973930;28;45505;-48
2022/09/30 11:25:30;;;;;;;;;9.40;9.40;;;;;44.40;13.16;100848.50;4973268;28;45576;-46
2022/09/30 11:28:18;;;;;;;;;10.40;8.40;;;;;41.91;14.64;100860.31;4973188;28;45496;-45
2022/09/30 11:31:20;;;;;;;;;11.00;9.20;;;;;40.21;14.96;100846.94;4972764;28;45378;-46
2022/09/30 11:34:08;;;;;;;;;6.40;6.40;;;;;38.40;15.88;100847.78;4973681;28;45518;-44